»·PEaware :: WAT380 KSFO-KSBA

WAT380 :: KSFO-KSBA

FLIGHT INFORMATION

Flight Status: Arrived
Operator:
Walker Air Transport
More flights by this operator :: More flights under this callsign
Pilot: Spencer M. (27733)
Aircraft: MCDONNELL-DOUGLAS MD-88
(MD88)
More flights by this aircraft type
Origin: KSFO San Francisco Intl
United States
Destination: KSBA Santa Barbara Mun
United States
More flights between these airports :: More routes between these airports
Route: SSTIK5 YYUNG GVO HABUT
File this flight plan on PilotEdge
Remarks:
Altitude:
(Current/Filed)
27,000ft
Speed:
(Current/Filed)
440kts
Departed: 07-Sep-21 01:05 PM
Arrived: 07-Sep-21 01:56 PM
Distance/Time
Traveled:
228nm/0:50
Distance/Time
To Go:
Arrived

Flight Plot

Page will automatically refresh every two minutes.

Flight plan parsing failed; only flown route is shown


Map Options




Map Legend


Flown Route
Filed Route
Departure Airport
Arrival Airport
Navaid (VOR, NDB)
Fix

Horizontal Profiles

Position Reports

Time Latitude Longitude Heading Altitude Ground
Speed
07-Sep-21 12:41 37.612124 -122.386412 80 16ft 0kts
07-Sep-21 12:42 37.612124 -122.386412 80 16ft 0kts
07-Sep-21 12:43 37.612124 -122.386412 80 16ft 0kts
07-Sep-21 12:44 37.612124 -122.386412 80 16ft 0kts
07-Sep-21 12:45 37.612124 -122.386412 80 16ft 0kts
07-Sep-21 12:46 37.612124 -122.386412 80 16ft 0kts
07-Sep-21 12:47 37.612124 -122.386412 80 16ft 0kts
07-Sep-21 12:48 37.612124 -122.386412 80 15ft 0kts
07-Sep-21 12:49 37.612124 -122.386412 80 15ft 0kts
07-Sep-21 12:50 37.612124 -122.386412 80 15ft 0kts
07-Sep-21 12:51 37.612124 -122.386412 80 15ft 0kts
07-Sep-21 12:52 37.612124 -122.386412 80 15ft 0kts
07-Sep-21 12:53 37.612124 -122.386412 80 15ft 0kts
07-Sep-21 12:54 37.612124 -122.386412 80 15ft 0kts
07-Sep-21 12:55 37.612015 -122.386596 42 16ft 2kts
07-Sep-21 12:56 37.611640 -122.387123 74 16ft 1kts
07-Sep-21 12:58 37.611108 -122.385797 119 15ft 7kts
07-Sep-21 12:59 37.610907 -122.385337 119 15ft 0kts
07-Sep-21 13:00 37.610907 -122.385337 119 15ft 0kts
07-Sep-21 13:01 37.610676 -122.384807 119 15ft 3kts
07-Sep-21 13:02 37.609012 -122.383626 133 16ft 9kts
07-Sep-21 13:03 37.608948 -122.383540 133 15ft 0kts
07-Sep-21 13:04 37.608810 -122.383289 119 15ft 5kts
07-Sep-21 13:05 37.621472 -122.373889 26 16ft 148kts
07-Sep-21 13:06 37.671256 -122.347527 14 1318ft 222kts
07-Sep-21 13:07 37.726667 -122.372714 290 3211ft 245kts
07-Sep-21 13:08 37.696450 -122.439753 190 5530ft 263kts
07-Sep-21 13:09 37.622313 -122.453766 187 7771ft 264kts
07-Sep-21 13:10 37.548924 -122.465430 187 10008ft 278kts
07-Sep-21 13:11 37.468197 -122.478476 188 12368ft 305kts
07-Sep-21 13:12 37.399635 -122.492020 188 16007ft 240kts
07-Sep-21 13:13 37.331250 -122.507548 188 17805ft 253kts
07-Sep-21 13:14 37.257172 -122.519012 185 19035ft 288kts
07-Sep-21 13:15 37.169700 -122.534069 186 19816ft 331kts
07-Sep-21 13:16 37.073648 -122.551737 186 21183ft 354kts
07-Sep-21 13:17 36.975057 -122.543996 153 22752ft 360kts
07-Sep-21 13:18 36.888278 -122.478233 150 24440ft 361kts
07-Sep-21 13:19 36.818116 -122.425917 150 27185ft 284kts
07-Sep-21 13:20 36.743466 -122.370834 150 27206ft 328kts
07-Sep-21 13:21 36.658559 -122.308743 150 27120ft 368kts
07-Sep-21 13:22 36.566298 -122.241751 150 27137ft 380kts
07-Sep-21 13:23 36.471892 -122.173591 150 27181ft 393kts
07-Sep-21 13:24 36.375125 -122.104087 150 27182ft 391kts
07-Sep-21 13:25 36.279579 -122.035766 150 27066ft 389kts
07-Sep-21 13:26 36.184855 -121.967999 149 27049ft 387kts
07-Sep-21 13:26 36.105633 -121.911385 149 27046ft 395kts
07-Sep-21 13:27 36.008106 -121.840806 147 27046ft 407kts
07-Sep-21 13:29 35.922270 -121.712106 128 27054ft 419kts
07-Sep-21 13:30 35.849373 -121.595356 129 25996ft 426kts
07-Sep-21 13:31 35.775630 -121.479036 129 24427ft 428kts
07-Sep-21 13:31 35.714028 -121.381832 129 23409ft 430kts
07-Sep-21 13:32 35.639648 -121.264280 129 22142ft 427kts
07-Sep-21 13:33 35.566473 -121.148463 129 20941ft 425kts
07-Sep-21 13:35 35.472520 -121.023938 141 19517ft 414kts
07-Sep-21 13:35 35.397486 -120.950275 141 18252ft 405kts
07-Sep-21 13:36 35.309208 -120.863068 141 16727ft 403kts
07-Sep-21 13:37 35.221370 -120.776181 140 15189ft 398kts
07-Sep-21 13:38 35.136110 -120.691771 140 13639ft 384kts
07-Sep-21 13:39 35.053859 -120.610276 140 12158ft 368kts
07-Sep-21 13:40 34.977054 -120.534121 139 10864ft 336kts
07-Sep-21 13:41 34.906192 -120.463812 138 9588ft 313kts
07-Sep-21 13:42 34.839919 -120.397996 138 8328ft 296kts
07-Sep-21 13:43 34.777505 -120.336004 139 7058ft 275kts
07-Sep-21 13:44 34.718281 -120.277132 139 5828ft 266kts
07-Sep-21 13:45 34.661360 -120.220552 139 4992ft 249kts
07-Sep-21 13:46 34.610893 -120.170349 139 4984ft 216kts
07-Sep-21 13:47 34.564957 -120.124611 139 5021ft 218kts
07-Sep-21 13:48 34.509858 -120.085172 175 5002ft 235kts
07-Sep-21 13:49 34.444067 -120.088020 178 4171ft 230kts
07-Sep-21 13:50 34.414381 -120.041675 55 3128ft 205kts
07-Sep-21 13:51 34.424842 -119.984356 90 2176ft 158kts
07-Sep-21 13:52 34.425742 -119.938577 90 1310ft 124kts
07-Sep-21 13:53 34.426688 -119.893441 90 690ft 136kts
07-Sep-21 13:54 34.427650 -119.848153 90 16ft 124kts
07-Sep-21 13:55 34.427370 -119.834782 153 15ft 15kts
07-Sep-21 13:56 34.426623 -119.836451 266 15ft 10kts
07-Sep-21 13:57 34.424931 -119.837291 114 14ft 0kts

Navigation Log

Ident Type
Flight plan parsing failed, navigation log unavailable